Time,TemperatureF,DewpointF,PressureIn,WindDirection,WindDirectionDegrees,WindSpeedMPH,WindSpeedGustMPH,Humidity,HourlyPrecipIn,Conditions,Clouds,dailyrainin,SoftwareType,DateUTC
2017-09-21 00:05:00,71.0,69.8,29.97,NNE,24,0.0,0.0,96,0.00,,,0.00,Wunderground v.1.15,2017-09-21 05:05:00,
2017-09-21 00:10:00,71.0,69.8,29.97,NNE,24,0.0,0.0,96,0.00,,,0.00,Wunderground v.1.15,2017-09-21 05:10:00,
2017-09-21 00:15:00,71.0,69.8,29.98,NNE,24,0.0,0.0,96,0.00,,,0.00,Wunderground v.1.15,2017-09-21 05:15:00,
2017-09-21 00:20:00,71.2,70.0,29.98,WSW,257,0.0,0.0,96,0.00,,,0.00,Wunderground v.1.15,2017-09-21 05:20:00,
2017-09-21 00:25:00,71.2,70.0,29.98,NNW,340,0.0,0.0,96,0.00,,,0.00,Wunderground v.1.15,2017-09-21 05:25:00,
2017-09-21 00:30:00,71.2,70.0,29.98,West,272,0.0,0.0,96,0.00,,,0.00,Wunderground v.1.15,2017-09-21 05:30:00,
2017-09-21 00:35:00,71.1,69.9,29.98,West,271,0.0,0.0,96,0.00,,,0.00,Wunderground v.1.15,2017-09-21 05:35:00,
2017-09-21 00:44:00,71.0,69.8,29.98,West,271,0.0,0.0,96,0.00,,,0.00,Wunderground v.1.15,2017-09-21 05:44:00,
2017-09-21 00:49:00,71.0,69.8,29.97,West,271,0.0,0.0,96,0.00,,,0.00,Wunderground v.1.15,2017-09-21 05:49:00,
2017-09-21 00:55:00,71.0,69.8,29.98,West,271,0.0,0.0,96,0.00,,,0.00,Wunderground v.1.15,2017-09-21 05:55:00,
2017-09-21 01:00:00,71.0,69.8,29.97,West,271,0.0,0.0,96,0.00,,,0.00,Wunderground v.1.15,2017-09-21 06:00:00,
2017-09-21 01:10:00,71.2,70.3,29.97,West,271,0.0,0.0,97,0.00,,,0.00,Wunderground v.1.15,2017-09-21 06:10:00,
2017-09-21 01:20:00,71.3,70.4,29.98,North,10,0.0,1.0,97,0.00,,,0.00,Wunderground v.1.15,2017-09-21 06:20:00,
2017-09-21 01:30:00,71.2,70.0,29.98,NNW,339,0.0,0.0,96,0.00,,,0.00,Wunderground v.1.15,2017-09-21 06:30:00,
2017-09-21 01:35:00,71.2,70.0,29.97,NNW,340,0.0,0.0,96,0.00,,,0.00,Wunderground v.1.15,2017-09-21 06:35:00,
2017-09-21 01:40:00,71.2,70.0,29.97,NNW,340,0.0,0.0,96,0.00,,,0.00,Wunderground v.1.15,2017-09-21 06:40:00,
2017-09-21 01:45:00,71.2,70.0,29.98,NNW,339,0.0,0.0,96,0.00,,,0.00,Wunderground v.1.15,2017-09-21 06:45:00,
2017-09-21 01:55:00,71.3,70.4,29.97,NNW,339,0.0,0.0,97,0.00,,,0.00,Wunderground v.1.15,2017-09-21 06:55:00,
2017-09-21 02:00:00,71.3,70.4,29.97,NNW,340,0.0,0.0,97,0.00,,,0.00,Wunderground v.1.15,2017-09-21 07:00:00,
2017-09-21 02:10:00,71.1,70.2,29.97,NNW,340,0.0,0.0,97,0.00,,,0.00,Wunderground v.1.15,2017-09-21 07:10:00,
2017-09-21 02:15:00,71.2,70.3,29.97,NNW,339,0.0,0.0,97,0.00,,,0.00,Wunderground v.1.15,2017-09-21 07:15:00,
2017-09-21 02:20:00,71.2,70.3,29.97,NNW,340,0.0,0.0,97,0.00,,,0.00,Wunderground v.1.15,2017-09-21 07:20:00,
2017-09-21 02:29:00,71.1,70.2,29.97,NNW,339,0.0,0.0,97,0.00,,,0.00,Wunderground v.1.15,2017-09-21 07:29:00,
2017-09-21 02:35:00,71.1,70.2,29.97,NNW,339,0.0,0.0,97,0.00,,,0.00,Wunderground v.1.15,2017-09-21 07:35:00,
2017-09-21 02:40:00,71.0,70.1,29.97,NNW,340,0.0,0.0,97,0.00,,,0.00,Wunderground v.1.15,2017-09-21 07:40:00,
2017-09-21 02:45:00,70.9,70.0,29.97,NNW,340,0.0,0.0,97,0.00,,,0.00,Wunderground v.1.15,2017-09-21 07:45:00,
2017-09-21 02:50:00,70.9,70.0,29.97,NNW,339,0.0,0.0,97,0.00,,,0.00,Wunderground v.1.15,2017-09-21 07:50:00,
2017-09-21 03:00:00,70.8,69.9,29.97,NNW,339,0.0,0.0,97,0.00,,,0.00,Wunderground v.1.15,2017-09-21 08:00:00,
2017-09-21 03:10:00,70.6,69.7,29.97,NNW,340,0.0,0.0,97,0.00,,,0.00,Wunderground v.1.15,2017-09-21 08:10:00,
2017-09-21 03:15:00,70.7,69.8,29.97,NNW,341,0.0,0.0,97,0.00,,,0.00,Wunderground v.1.15,2017-09-21 08:15:00,
2017-09-21 03:24:00,70.7,69.8,29.97,NNW,341,0.0,0.0,97,0.00,,,0.00,Wunderground v.1.15,2017-09-21 08:24:00,
2017-09-21 03:29:00,70.6,69.7,29.97,NNW,341,0.0,0.0,97,0.00,,,0.00,Wunderground v.1.15,2017-09-21 08:29:00,
2017-09-21 03:35:00,70.6,69.7,29.97,NNW,341,0.0,0.0,97,0.00,,,0.00,Wunderground v.1.15,2017-09-21 08:35:00,
2017-09-21 03:40:00,70.4,69.5,29.97,NNW,341,0.0,0.0,97,0.00,,,0.00,Wunderground v.1.15,2017-09-21 08:40:00,
2017-09-21 03:45:00,70.4,69.5,29.97,NNW,341,0.0,0.0,97,0.00,,,0.00,Wunderground v.1.15,2017-09-21 08:45:00,
2017-09-21 03:50:00,70.4,69.5,29.97,NNW,341,0.0,0.0,97,0.00,,,0.00,Wunderground v.1.15,2017-09-21 08:50:00,
2017-09-21 03:55:00,70.3,69.4,29.97,NNW,341,0.0,0.0,97,0.00,,,0.00,Wunderground v.1.15,2017-09-21 08:55:00,
2017-09-21 04:00:00,70.3,69.7,29.97,NNW,341,0.0,0.0,98,0.00,,,0.00,Wunderground v.1.15,2017-09-21 09:00:00,
2017-09-21 04:10:00,70.3,69.4,29.97,NNW,341,0.0,0.0,97,0.00,,,0.00,Wunderground v.1.15,2017-09-21 09:10:00,
2017-09-21 04:20:00,70.2,69.6,29.97,NNW,341,0.0,0.0,98,0.00,,,0.00,Wunderground v.1.15,2017-09-21 09:20:00,
2017-09-21 04:30:00,70.2,69.6,29.97,NNW,341,0.0,0.0,98,0.00,,,0.00,Wunderground v.1.15,2017-09-21 09:30:00,
2017-09-21 04:35:00,70.2,69.6,29.97,NNW,341,0.0,0.0,98,0.00,,,0.00,Wunderground v.1.15,2017-09-21 09:35:00,
2017-09-21 04:40:00,70.3,69.7,29.97,NNW,341,0.0,0.0,98,0.00,,,0.00,Wunderground v.1.15,2017-09-21 09:40:00,
2017-09-21 04:45:00,70.3,69.7,29.97,NNW,341,0.0,0.0,98,0.00,,,0.00,Wunderground v.1.15,2017-09-21 09:45:00,
2017-09-21 04:50:00,70.5,69.9,29.98,NE,40,0.0,0.0,98,0.00,,,0.00,Wunderground v.1.15,2017-09-21 09:50:00,
2017-09-21 05:00:00,70.5,69.9,29.98,NE,40,0.0,0.0,98,0.00,,,0.00,Wunderground v.1.15,2017-09-21 10:00:00,
2017-09-21 05:10:00,70.5,69.9,29.98,NE,40,0.0,0.0,98,0.00,,,0.00,Wunderground v.1.15,2017-09-21 10:10:00,
2017-09-21 05:15:00,70.5,69.6,29.99,NE,48,0.0,0.0,97,0.00,,,0.00,Wunderground v.1.15,2017-09-21 10:15:00,
2017-09-21 05:24:00,70.7,69.8,29.98,NE,48,0.0,0.0,97,0.00,,,0.00,Wunderground v.1.15,2017-09-21 10:24:00,
2017-09-21 05:30:00,70.8,69.9,29.98,NE,48,0.0,0.0,97,0.00,,,0.00,Wunderground v.1.15,2017-09-21 10:30:00,
2017-09-21 05:35:00,70.9,70.0,29.98,NE,48,0.0,0.0,97,0.00,,,0.00,Wunderground v.1.15,2017-09-21 10:35:00,
2017-09-21 05:40:00,70.9,69.7,29.99,NE,48,0.0,0.0,96,0.00,,,0.00,Wunderground v.1.15,2017-09-21 10:40:00,
2017-09-21 05:45:00,70.9,69.7,29.99,NE,48,0.0,0.0,96,0.00,,,0.00,Wunderground v.1.15,2017-09-21 10:45:00,
2017-09-21 05:50:00,70.9,69.7,29.98,NE,48,0.0,0.0,96,0.00,,,0.00,Wunderground v.1.15,2017-09-21 10:50:00,
2017-09-21 06:00:00,70.8,69.6,29.99,NE,48,0.0,0.0,96,0.00,,,0.00,Wunderground v.1.15,2017-09-21 11:00:00,
2017-09-21 06:10:00,70.7,69.5,29.99,NE,48,0.0,0.0,96,0.00,,,0.00,Wunderground v.1.15,2017-09-21 11:10:00,
2017-09-21 06:15:00,70.7,69.5,29.99,NE,48,0.0,0.0,96,0.00,,,0.00,Wunderground v.1.15,2017-09-21 11:15:00,
2017-09-21 06:24:00,70.7,69.5,29.99,NE,48,0.0,0.0,96,0.00,,,0.00,Wunderground v.1.15,2017-09-21 11:24:00,
2017-09-21 06:30:00,70.6,69.4,30.00,NE,48,0.0,0.0,96,0.00,,,0.00,Wunderground v.1.15,2017-09-21 11:30:00,
2017-09-21 06:35:00,70.4,69.2,30.00,NE,48,0.0,0.0,96,0.00,,,0.00,Wunderground v.1.15,2017-09-21 11:35:00,
2017-09-21 06:40:00,70.3,69.1,30.00,NE,48,0.0,0.0,96,0.00,,,0.00,Wunderground v.1.15,2017-09-21 11:40:00,
2017-09-21 06:45:00,70.3,69.1,30.00,NE,48,0.0,0.0,96,0.00,,,0.00,Wunderground v.1.15,2017-09-21 11:45:00,
2017-09-21 06:50:00,70.4,69.2,30.00,NE,48,0.0,0.0,96,0.00,,,0.00,Wunderground v.1.15,2017-09-21 11:50:00,
2017-09-21 06:55:00,70.4,69.5,30.00,NE,48,0.0,0.0,97,0.00,,,0.00,Wunderground v.1.15,2017-09-21 11:55:00,
2017-09-21 07:00:00,70.5,69.6,30.00,NE,48,0.0,0.0,97,0.00,,,0.00,Wunderground v.1.15,2017-09-21 12:00:00,
2017-09-21 07:10:00,70.7,69.8,30.00,NE,48,0.0,0.0,97,0.00,,,0.00,Wunderground v.1.15,2017-09-21 12:10:00,
2017-09-21 07:15:00,70.9,70.0,30.00,NE,48,0.0,0.0,97,0.00,,,0.00,Wunderground v.1.15,2017-09-21 12:15:00,
2017-09-21 07:20:00,71.2,70.3,30.01,NE,48,0.0,0.0,97,0.00,,,0.00,Wunderground v.1.15,2017-09-21 12:20:00,
2017-09-21 07:25:00,71.6,70.4,30.01,NE,48,0.0,0.0,96,0.00,,,0.00,Wunderground v.1.15,2017-09-21 12:25:00,
2017-09-21 07:30:00,71.9,70.7,30.01,NE,48,0.0,0.0,96,0.00,,,0.00,Wunderground v.1.15,2017-09-21 12:30:00,
2017-09-21 07:39:00,72.8,70.7,30.01,NE,46,0.0,0.0,93,0.00,,,0.00,Wunderground v.1.15,2017-09-21 12:39:00,
2017-09-21 07:44:00,73.3,71.2,30.01,NE,34,0.0,1.0,93,0.00,,,0.00,Wunderground v.1.15,2017-09-21 12:44:00,
2017-09-21 07:49:00,73.7,70.9,30.01,North,351,0.0,0.0,91,0.00,,,0.00,Wunderground v.1.15,2017-09-21 12:49:00,
2017-09-21 07:55:00,74.1,71.0,30.02,North,350,0.0,0.0,90,0.00,,,0.00,Wunderground v.1.15,2017-09-21 12:55:00,
2017-09-21 08:00:00,74.5,71.0,30.02,NE,46,0.0,0.0,89,0.00,,,0.00,Wunderground v.1.15,2017-09-21 13:00:00,
2017-09-21 08:10:00,75.4,70.9,30.02,NE,46,1.0,1.0,86,0.00,,,0.00,Wunderground v.1.15,2017-09-21 13:10:00,
2017-09-21 08:19:00,76.1,70.9,30.02,ENE,72,1.0,1.0,84,0.00,,,0.00,Wunderground v.1.15,2017-09-21 13:19:00,
2017-09-21 08:24:00,76.5,71.3,30.02,NE,36,1.0,1.0,84,0.00,,,0.00,Wunderground v.1.15,2017-09-21 13:24:00,
2017-09-21 08:30:00,76.7,71.1,30.02,NNW,348,1.0,2.0,83,0.00,,,0.00,Wunderground v.1.15,2017-09-21 13:30:00,
2017-09-21 08:35:00,76.9,71.0,30.02,ENE,65,2.0,2.0,82,0.00,,,0.00,Wunderground v.1.15,2017-09-21 13:35:00,
2017-09-21 08:40:00,77.4,71.8,30.02,ENE,67,1.0,3.0,83,0.00,,,0.00,Wunderground v.1.15,2017-09-21 13:40:00,
2017-09-21 08:45:00,77.7,71.8,30.02,NE,40,1.0,5.0,82,0.00,,,0.00,Wunderground v.1.15,2017-09-21 13:45:00,
2017-09-21 08:54:00,78.2,71.9,30.03,ENE,71,1.0,2.0,81,0.00,,,0.00,Wunderground v.1.15,2017-09-21 13:54:00,
2017-09-21 09:00:00,78.5,72.2,30.03,NE,47,1.0,2.0,81,0.00,,,0.00,Wunderground v.1.15,2017-09-21 14:00:00,
2017-09-21 09:10:00,79.1,72.4,30.02,NE,53,2.0,2.0,80,0.00,,,0.00,Wunderground v.1.15,2017-09-21 14:10:00,
2017-09-21 09:15:00,79.6,72.5,30.03,ENE,64,2.0,3.0,79,0.00,,,0.00,Wunderground v.1.15,2017-09-21 14:15:00,
2017-09-21 09:20:00,79.9,72.4,30.03,ENE,63,1.0,2.0,78,0.00,,,0.00,Wunderground v.1.15,2017-09-21 14:20:00,
2017-09-21 09:29:00,80.6,73.1,30.03,ENE,63,1.0,1.0,78,0.00,,,0.00,Wunderground v.1.15,2017-09-21 14:29:00,
2017-09-21 09:35:00,80.9,73.4,30.03,NE,44,1.0,2.0,78,0.00,,,0.00,Wunderground v.1.15,2017-09-21 14:35:00,
2017-09-21 09:40:00,81.2,73.3,30.02,NE,42,1.0,4.0,77,0.00,,,0.00,Wunderground v.1.15,2017-09-21 14:40:00,
2017-09-21 09:45:00,81.5,73.2,30.02,NE,38,2.0,4.0,76,0.00,,,0.00,Wunderground v.1.15,2017-09-21 14:45:00,
2017-09-21 09:50:00,81.6,73.3,30.03,ENE,74,2.0,3.0,76,0.00,,,0.00,Wunderground v.1.15,2017-09-21 14:50:00,
2017-09-21 09:55:00,81.6,73.3,30.03,ENE,65,3.0,3.0,76,0.00,,,0.00,Wunderground v.1.15,2017-09-21 14:55:00,
2017-09-21 10:04:00,81.9,74.0,30.02,NW,325,2.0,3.0,77,0.00,,,0.00,Wunderground v.1.15,2017-09-21 15:04:00,
2017-09-21 10:10:00,82.0,73.7,30.02,NE,44,3.0,3.0,76,0.00,,,0.00,Wunderground v.1.15,2017-09-21 15:10:00,
2017-09-21 10:15:00,82.3,74.7,30.02,NNW,336,3.0,3.0,78,0.00,,,0.00,Wunderground v.1.15,2017-09-21 15:15:00,
2017-09-21 10:20:00,82.9,74.2,30.02,NE,52,2.0,3.0,75,0.00,,,0.00,Wunderground v.1.15,2017-09-21 15:20:00,
2017-09-21 10:25:00,83.1,74.7,30.02,NE,51,2.0,3.0,76,0.00,,,0.00,Wunderground v.1.15,2017-09-21 15:25:00,
2017-09-21 10:30:00,83.3,74.9,30.02,NW,325,2.0,2.0,76,0.00,,,0.00,Wunderground v.1.15,2017-09-21 15:30:00,
2017-09-21 10:39:00,84.1,75.7,30.02,NNE,32,2.0,2.0,76,0.00,,,0.00,Wunderground v.1.15,2017-09-21 15:39:00,
2017-09-21 10:44:00,84.6,76.2,30.02,NE,51,1.0,2.0,76,0.00,,,0.00,Wunderground v.1.15,2017-09-21 15:44:00,
2017-09-21 10:50:00,84.8,76.0,30.02,East,98,2.0,2.0,75,0.00,,,0.00,Wunderground v.1.15,2017-09-21 15:50:00,
2017-09-21 10:55:00,84.7,75.9,30.02,East,96,2.0,2.0,75,0.00,,,0.00,Wunderground v.1.15,2017-09-21 15:55:00,
2017-09-21 11:00:00,84.3,76.3,30.01,ESE,103,2.0,2.0,77,0.00,,,0.00,Wunderground v.1.15,2017-09-21 16:00:00,
2017-09-21 11:09:00,84.8,76.4,30.02,ENE,65,2.0,3.0,76,0.00,,,0.00,Wunderground v.1.15,2017-09-21 16:09:00,
2017-09-21 11:14:00,85.2,76.4,30.02,NW,316,2.0,3.0,75,0.00,,,0.00,Wunderground v.1.15,2017-09-21 16:14:00,
2017-09-21 11:19:00,85.7,76.9,30.02,ENE,58,2.0,4.0,75,0.00,,,0.00,Wunderground v.1.15,2017-09-21 16:19:00,
2017-09-21 11:25:00,85.5,76.7,30.01,East,99,2.0,4.0,75,0.00,,,0.00,Wunderground v.1.15,2017-09-21 16:25:00,
2017-09-21 11:30:00,86.0,76.7,30.01,ENE,61,3.0,3.0,74,0.00,,,0.00,Wunderground v.1.15,2017-09-21 16:30:00,
2017-09-21 11:35:00,86.3,76.6,30.01,NE,44,2.0,3.0,73,0.00,,,0.00,Wunderground v.1.15,2017-09-21 16:35:00,
2017-09-21 11:40:00,86.5,76.8,30.01,NNE,21,1.0,2.0,73,0.00,,,0.00,Wunderground v.1.15,2017-09-21 16:40:00,
2017-09-21 11:50:00,87.1,76.5,30.01,ENE,69,2.0,4.0,71,0.00,,,0.00,Wunderground v.1.15,2017-09-21 16:50:00,
2017-09-21 11:55:00,87.1,75.7,30.01,ENE,70,2.0,4.0,69,0.00,,,0.00,Wunderground v.1.15,2017-09-21 16:55:00,
2017-09-21 12:00:00,87.6,76.6,30.01,NE,36,2.0,5.0,70,0.00,,,0.00,Wunderground v.1.15,2017-09-21 17:00:00,
2017-09-21 12:09:00,87.8,75.9,30.01,East,90,3.0,3.0,68,0.00,,,0.00,Wunderground v.1.15,2017-09-21 17:09:00,
2017-09-21 12:15:00,87.3,75.4,30.01,ESE,111,3.0,3.0,68,0.00,,,0.00,Wunderground v.1.15,2017-09-21 17:15:00,
2017-09-21 12:20:00,87.3,76.3,30.01,ESE,105,2.0,2.0,70,0.00,,,0.00,Wunderground v.1.15,2017-09-21 17:20:00,
2017-09-21 12:25:00,88.2,77.2,30.00,ENE,65,1.0,2.0,70,0.00,,,0.00,Wunderground v.1.15,2017-09-21 17:25:00,
2017-09-21 12:30:00,88.7,77.2,30.00,ENE,65,2.0,2.0,69,0.00,,,0.00,Wunderground v.1.15,2017-09-21 17:30:00,
2017-09-21 12:39:00,89.1,77.2,30.00,ENE,60,2.0,5.0,68,0.00,,,0.00,Wunderground v.1.15,2017-09-21 17:39:00,
2017-09-21 12:45:00,89.1,76.3,29.99,SE,124,2.0,5.0,66,0.00,,,0.00,Wunderground v.1.15,2017-09-21 17:45:00,
2017-09-21 12:50:00,88.6,75.8,29.99,ENE,76,2.0,2.0,66,0.00,,,0.00,Wunderground v.1.15,2017-09-21 17:50:00,
2017-09-21 12:55:00,87.8,75.0,29.99,East,80,2.0,2.0,66,0.00,,,0.00,Wunderground v.1.15,2017-09-21 17:55:00,
2017-09-21 13:00:00,88.0,75.2,29.99,East,101,2.0,2.0,66,0.00,,,0.00,Wunderground v.1.15,2017-09-21 18:00:00,
2017-09-21 13:09:00,88.7,75.0,29.99,ENE,63,2.0,2.0,64,0.00,,,0.00,Wunderground v.1.15,2017-09-21 18:09:00,
2017-09-21 13:15:00,88.6,75.8,29.98,West,274,2.0,2.0,66,0.00,,,0.00,Wunderground v.1.15,2017-09-21 18:15:00,
2017-09-21 13:20:00,88.8,75.0,29.98,East,89,2.0,3.0,64,0.00,,,0.00,Wunderground v.1.15,2017-09-21 18:20:00,
2017-09-21 13:25:00,88.3,75.5,29.98,East,94,2.0,3.0,66,0.00,,,0.00,Wunderground v.1.15,2017-09-21 18:25:00,
2017-09-21 13:30:00,88.0,75.2,29.98,East,94,2.0,2.0,66,0.00,,,0.00,Wunderground v.1.15,2017-09-21 18:30:00,
2017-09-21 13:39:00,88.2,74.9,29.98,East,80,1.0,1.0,65,0.00,,,0.00,Wunderground v.1.15,2017-09-21 18:39:00,